sensor_id;sensor_type;location;lat;lon;timestamp;pressure;altitude;pressure_sealevel;temperature;humidity
60240;BME280;46102;39.012;-7.064;2022-11-25T00:00:33;99019.13;;;13.92;100.00
60240;BME280;46102;39.012;-7.064;2022-11-25T00:02:34;99013.94;;;13.91;100.00
60240;BME280;46102;39.012;-7.064;2022-11-25T00:04:34;99007.94;;;13.89;100.00
60240;BME280;46102;39.012;-7.064;2022-11-25T00:06:36;99015.41;;;13.88;100.00
60240;BME280;46102;39.012;-7.064;2022-11-25T00:08:37;99017.03;;;13.89;100.00
60240;BME280;46102;39.012;-7.064;2022-11-25T00:10:38;99020.13;;;13.88;100.00
60240;BME280;46102;39.012;-7.064;2022-11-25T00:12:38;99019.81;;;13.81;100.00
60240;BME280;46102;39.012;-7.064;2022-11-25T00:14:39;99012.03;;;13.83;100.00
60240;BME280;46102;39.012;-7.064;2022-11-25T00:16:40;99020.44;;;13.78;100.00
60240;BME280;46102;39.012;-7.064;2022-11-25T00:18:45;99024.97;;;13.82;100.00
60240;BME280;46102;39.012;-7.064;2022-11-25T00:20:46;99020.13;;;13.79;100.00
60240;BME280;46102;39.012;-7.064;2022-11-25T00:22:47;99027.44;;;13.75;100.00
60240;BME280;46102;39.012;-7.064;2022-11-25T00:24:47;99028.56;;;13.74;100.00
60240;BME280;46102;39.012;-7.064;2022-11-25T00:26:48;99042.69;;;13.72;100.00
60240;BME280;46102;39.012;-7.064;2022-11-25T00:28:51;99045.44;;;13.72;100.00
60240;BME280;46102;39.012;-7.064;2022-11-25T00:30:52;99034.72;;;13.71;100.00
60240;BME280;46102;39.012;-7.064;2022-11-25T00:32:53;99042.69;;;13.72;100.00
60240;BME280;46102;39.012;-7.064;2022-11-25T00:34:54;99045.75;;;13.71;100.00
60240;BME280;46102;39.012;-7.064;2022-11-25T00:36:55;99037.00;;;13.69;100.00
60240;BME280;46102;39.012;-7.064;2022-11-25T00:38:57;99035.38;;;13.68;100.00
60240;BME280;46102;39.012;-7.064;2022-11-25T00:40:58;99035.38;;;13.68;100.00
60240;BME280;46102;39.012;-7.064;2022-11-25T00:43:17;99049.50;;;13.66;100.00
60240;BME280;46102;39.012;-7.064;2022-11-25T00:45:56;99047.06;;;13.65;100.00
60240;BME280;46102;39.012;-7.064;2022-11-25T00:47:57;99049.66;;;13.61;100.00
60240;BME280;46102;39.012;-7.064;2022-11-25T00:49:57;99047.56;;;13.58;100.00
60240;BME280;46102;39.012;-7.064;2022-11-25T00:51:58;99035.72;;;13.58;100.00
60240;BME280;46102;39.012;-7.064;2022-11-25T00:53:59;99047.09;;;13.56;100.00
60240;BME280;46102;39.012;-7.064;2022-11-25T00:56:00;99048.69;;;13.57;100.00
60240;BME280;46102;39.012;-7.064;2022-11-25T00:58:14;99043.97;;;13.58;100.00
60240;BME280;46102;39.012;-7.064;2022-11-25T01:00:14;99043.53;;;13.56;100.00
60240;BME280;46102;39.012;-7.064;2022-11-25T01:02:17;99040.59;;;13.52;100.00
60240;BME280;46102;39.012;-7.064;2022-11-25T01:04:18;99043.03;;;13.53;100.00
60240;BME280;46102;39.012;-7.064;2022-11-25T01:06:19;99044.81;;;13.49;100.00
60240;BME280;46102;39.012;-7.064;2022-11-25T01:08:20;99042.38;;;13.48;100.00
60240;BME280;46102;39.012;-7.064;2022-11-25T01:10:21;99040.91;;;13.50;100.00
60240;BME280;46102;39.012;-7.064;2022-11-25T01:12:21;99040.09;;;13.50;100.00
60240;BME280;46102;39.012;-7.064;2022-11-25T01:14:25;99038.81;;;13.47;100.00
60240;BME280;46102;39.012;-7.064;2022-11-25T01:16:26;99045.13;;;13.48;100.00
60240;BME280;46102;39.012;-7.064;2022-11-25T01:18:28;99051.31;;;13.45;100.00
60240;BME280;46102;39.012;-7.064;2022-11-25T01:20:29;99058.28;;;13.42;100.00
60240;BME280;46102;39.012;-7.064;2022-11-25T01:22:29;99061.84;;;13.43;100.00
60240;BME280;46102;39.012;-7.064;2022-11-25T01:24:30;99060.53;;;13.40;100.00
60240;BME280;46102;39.012;-7.064;2022-11-25T01:26:32;99055.03;;;13.40;100.00
60240;BME280;46102;39.012;-7.064;2022-11-25T01:28:33;99059.56;;;13.36;100.00
60240;BME280;46102;39.012;-7.064;2022-11-25T01:30:34;99060.69;;;13.35;100.00
60240;BME280;46102;39.012;-7.064;2022-11-25T01:32:34;99055.16;;;13.35;100.00
60240;BME280;46102;39.012;-7.064;2022-11-25T01:34:35;99057.91;;;13.35;100.00
60240;BME280;46102;39.012;-7.064;2022-11-25T01:36:36;99058.56;;;13.32;100.00
60240;BME280;46102;39.012;-7.064;2022-11-25T01:38:37;99063.59;;;13.39;100.00
60240;BME280;46102;39.012;-7.064;2022-11-25T01:40:38;99064.41;;;13.30;100.00
60240;BME280;46102;39.012;-7.064;2022-11-25T01:42:44;99063.59;;;13.30;100.00
60240;BME280;46102;39.012;-7.064;2022-11-25T01:45:18;99062.09;;;13.24;100.00
60240;BME280;46102;39.012;-7.064;2022-11-25T01:47:26;99050.28;;;13.23;100.00
60240;BME280;46102;39.012;-7.064;2022-11-25T01:51:47;99050.94;;;13.20;100.00
60240;BME280;46102;39.012;-7.064;2022-11-25T01:53:52;99055.94;;;13.18;100.00
60240;BME280;46102;39.012;-7.064;2022-11-25T01:55:57;99055.63;;;13.20;100.00
60240;BME280;46102;39.012;-7.064;2022-11-25T01:58:06;99054.66;;;13.16;100.00
60240;BME280;46102;39.012;-7.064;2022-11-25T02:00:08;99045.56;;;13.15;100.00
60240;BME280;46102;39.012;-7.064;2022-11-25T02:02:19;99049.31;;;13.10;100.00
60240;BME280;46102;39.012;-7.064;2022-11-25T02:04:22;99057.22;;;13.12;100.00
60240;BME280;46102;39.012;-7.064;2022-11-25T02:06:28;99069.38;;;13.11;100.00
60240;BME280;46102;39.012;-7.064;2022-11-25T02:08:32;99080.56;;;13.15;100.00
60240;BME280;46102;39.012;-7.064;2022-11-25T02:10:34;99082.34;;;13.10;100.00
60240;BME280;46102;39.012;-7.064;2022-11-25T02:12:37;99086.22;;;13.09;100.00
60240;BME280;46102;39.012;-7.064;2022-11-25T02:14:40;99087.69;;;13.07;100.00
60240;BME280;46102;39.012;-7.064;2022-11-25T02:16:41;99103.72;;;13.05;100.00
60240;BME280;46102;39.012;-7.064;2022-11-25T02:18:42;99111.16;;;13.04;100.00
60240;BME280;46102;39.012;-7.064;2022-11-25T02:20:43;99103.06;;;12.99;100.00
60240;BME280;46102;39.012;-7.064;2022-11-25T02:25:12;99099.81;;;12.97;100.00
60240;BME280;46102;39.012;-7.064;2022-11-25T02:27:13;99106.44;;;12.96;100.00
60240;BME280;46102;39.012;-7.064;2022-11-25T02:29:16;99112.75;;;12.97;100.00
60240;BME280;46102;39.012;-7.064;2022-11-25T02:31:21;99111.94;;;12.96;100.00
60240;BME280;46102;39.012;-7.064;2022-11-25T02:33:22;99111.44;;;12.94;100.00
60240;BME280;46102;39.012;-7.064;2022-11-25T02:37:28;99114.84;;;12.91;100.00
60240;BME280;46102;39.012;-7.064;2022-11-25T02:39:29;99122.81;;;12.93;100.00
60240;BME280;46102;39.012;-7.064;2022-11-25T02:41:40;99131.38;;;12.91;100.00
60240;BME280;46102;39.012;-7.064;2022-11-25T02:43:42;99125.06;;;12.90;100.00
60240;BME280;46102;39.012;-7.064;2022-11-25T02:45:51;99137.53;;;12.88;100.00
60240;BME280;46102;39.012;-7.064;2022-11-25T02:47:53;99136.69;;;12.87;100.00
60240;BME280;46102;39.012;-7.064;2022-11-25T02:49:54;99129.28;;;12.97;100.00
60240;BME280;46102;39.012;-7.064;2022-11-25T02:51:55;99126.97;;;12.90;100.00
60240;BME280;46102;39.012;-7.064;2022-11-25T02:53:56;99137.84;;;12.86;100.00
60240;BME280;46102;39.012;-7.064;2022-11-25T02:55:59;99139.59;;;12.82;100.00
60240;BME280;46102;39.012;-7.064;2022-11-25T02:58:00;99138.94;;;12.85;100.00
60240;BME280;46102;39.012;-7.064;2022-11-25T03:00:01;99149.31;;;12.80;100.00
60240;BME280;46102;39.012;-7.064;2022-11-25T03:02:01;99146.22;;;12.73;100.00
60240;BME280;46102;39.012;-7.064;2022-11-25T03:04:02;99144.75;;;12.75;100.00
60240;BME280;46102;39.012;-7.064;2022-11-25T03:06:03;99144.75;;;12.75;100.00
60240;BME280;46102;39.012;-7.064;2022-11-25T03:08:05;99147.22;;;12.77;100.00
60240;BME280;46102;39.012;-7.064;2022-11-25T03:10:10;99147.22;;;12.77;100.00
60240;BME280;46102;39.012;-7.064;2022-11-25T03:12:11;99147.31;;;12.71;100.00
60240;BME280;46102;39.012;-7.064;2022-11-25T03:14:26;99142.16;;;12.70;100.00
60240;BME280;46102;39.012;-7.064;2022-11-25T03:16:27;99133.41;;;12.68;100.00
60240;BME280;46102;39.012;-7.064;2022-11-25T03:18:28;99141.97;;;12.66;100.00
60240;BME280;46102;39.012;-7.064;2022-11-25T03:20:28;99144.06;;;12.69;100.00
60240;BME280;46102;39.012;-7.064;2022-11-25T03:22:29;99140.50;;;12.69;100.00
60240;BME280;46102;39.012;-7.064;2022-11-25T03:24:31;99131.16;;;12.70;100.00
60240;BME280;46102;39.012;-7.064;2022-11-25T03:26:32;99138.91;;;12.68;100.00
60240;BME280;46102;39.012;-7.064;2022-11-25T03:28:33;99135.31;;;12.67;100.00
60240;BME280;46102;39.012;-7.064;2022-11-25T03:30:33;99145.53;;;12.67;100.00
60240;BME280;46102;39.012;-7.064;2022-11-25T03:32:36;99147.47;;;12.66;100.00
60240;BME280;46102;39.012;-7.064;2022-11-25T03:34:37;99150.53;;;12.65;100.00
60240;BME280;46102;39.012;-7.064;2022-11-25T03:36:38;99143.91;;;12.66;100.00
60240;BME280;46102;39.012;-7.064;2022-11-25T03:38:39;99153.28;;;12.65;100.00
60240;BME280;46102;39.012;-7.064;2022-11-25T03:40:40;99139.84;;;12.63;100.00
60240;BME280;46102;39.012;-7.064;2022-11-25T03:42:42;99145.34;;;12.63;100.00
60240;BME280;46102;39.012;-7.064;2022-11-25T03:44:43;99140.97;;;12.62;100.00
60240;BME280;46102;39.012;-7.064;2022-11-25T03:46:44;99148.28;;;12.67;100.00
60240;BME280;46102;39.012;-7.064;2022-11-25T03:48:45;99145.53;;;12.67;100.00
60240;BME280;46102;39.012;-7.064;2022-11-25T03:50:47;99149.06;;;12.67;100.00
60240;BME280;46102;39.012;-7.064;2022-11-25T03:52:48;99150.53;;;12.65;100.00
60240;BME280;46102;39.012;-7.064;2022-11-25T03:54:51;99147.91;;;12.60;100.00
60240;BME280;46102;39.012;-7.064;2022-11-25T03:56:57;99146.31;;;12.59;100.00
60240;BME280;46102;39.012;-7.064;2022-11-25T03:58:58;99153.41;;;12.60;100.00
60240;BME280;46102;39.012;-7.064;2022-11-25T04:01:00;99154.72;;;12.62;100.00
60240;BME280;46102;39.012;-7.064;2022-11-25T04:03:01;99156.38;;;12.63;100.00
60240;BME280;46102;39.012;-7.064;2022-11-25T04:05:04;99145.16;;;12.60;100.00
60240;BME280;46102;39.012;-7.064;2022-11-25T04:07:05;99154.88;;;12.57;100.00
60240;BME280;46102;39.012;-7.064;2022-11-25T04:09:08;99148.06;;;12.55;100.00
60240;BME280;46102;39.012;-7.064;2022-11-25T04:11:09;99155.50;;;12.54;100.00
60240;BME280;46102;39.012;-7.064;2022-11-25T04:13:14;99154.69;;;12.54;100.00
60240;BME280;46102;39.012;-7.064;2022-11-25T04:15:16;99147.56;;;12.53;100.00
60240;BME280;46102;39.012;-7.064;2022-11-25T04:17:18;99150.94;;;12.49;100.00
60240;BME280;46102;39.012;-7.064;2022-11-25T04:19:19;99150.63;;;12.51;100.00
60240;BME280;46102;39.012;-7.064;2022-11-25T04:21:20;99154.50;;;12.50;100.00
60240;BME280;46102;39.012;-7.064;2022-11-25T04:23:21;99154.50;;;12.50;100.00
60240;BME280;46102;39.012;-7.064;2022-11-25T04:25:31;99150.13;;;12.49;100.00
60240;BME280;46102;39.012;-7.064;2022-11-25T04:27:32;99155.47;;;12.45;100.00
60240;BME280;46102;39.012;-7.064;2022-11-25T04:29:33;99161.28;;;12.44;100.00
60240;BME280;46102;39.012;-7.064;2022-11-25T04:31:37;99162.06;;;12.44;100.00
60240;BME280;46102;39.012;-7.064;2022-11-25T04:33:38;99168.22;;;12.41;100.00
60240;BME280;46102;39.012;-7.064;2022-11-25T04:35:39;99163.31;;;12.38;100.00
60240;BME280;46102;39.012;-7.064;2022-11-25T04:37:41;99166.41;;;12.37;100.00
60240;BME280;46102;39.012;-7.064;2022-11-25T04:39:42;99162.84;;;12.36;100.00
60240;BME280;46102;39.012;-7.064;2022-11-25T04:41:50;99160.72;;;12.33;100.00
60240;BME280;46102;39.012;-7.064;2022-11-25T04:44:12;99175.91;;;12.31;100.00
60240;BME280;46102;39.012;-7.064;2022-11-25T04:46:18;99165.22;;;12.29;100.00
60240;BME280;46102;39.012;-7.064;2022-11-25T04:48:23;99162.47;;;12.29;100.00
60240;BME280;46102;39.012;-7.064;2022-11-25T04:50:25;99165.53;;;12.27;100.00
60240;BME280;46102;39.012;-7.064;2022-11-25T04:52:33;99156.47;;;12.27;100.00
60240;BME280;46102;39.012;-7.064;2022-11-25T04:54:33;99158.41;;;12.26;100.00
60240;BME280;46102;39.012;-7.064;2022-11-25T04:56:34;99174.09;;;12.26;100.00
60240;BME280;46102;39.012;-7.064;2022-11-25T04:58:35;99167.78;;;12.25;100.00
60240;BME280;46102;39.012;-7.064;2022-11-25T05:00:54;99175.53;;;12.23;100.00
60240;BME280;46102;39.012;-7.064;2022-11-25T05:02:56;99168.41;;;12.22;100.00
60240;BME280;46102;39.012;-7.064;2022-11-25T05:04:57;99166.78;;;12.21;100.00
60240;BME280;46102;39.012;-7.064;2022-11-25T05:06:58;99178.09;;;12.20;100.00
60240;BME280;46102;39.012;-7.064;2022-11-25T05:08:59;99184.22;;;12.17;100.00
60240;BME280;46102;39.012;-7.064;2022-11-25T05:11:00;99179.03;;;12.15;100.00
60240;BME280;46102;39.012;-7.064;2022-11-25T05:13:01;99187.28;;;12.15;100.00
60240;BME280;46102;39.012;-7.064;2022-11-25T05:15:04;99190.66;;;12.12;100.00
60240;BME280;46102;39.012;-7.064;2022-11-25T05:17:13;99191.78;;;12.11;100.00
60240;BME280;46102;39.012;-7.064;2022-11-25T05:19:14;99184.97;;;12.08;100.00
60240;BME280;46102;39.012;-7.064;2022-11-25T05:21:15;99180.91;;;12.06;100.00
60240;BME280;46102;39.012;-7.064;2022-11-25T05:23:17;99190.31;;;12.05;100.00
60240;BME280;46102;39.012;-7.064;2022-11-25T05:25:17;99192.03;;;12.01;100.00
60240;BME280;46102;39.012;-7.064;2022-11-25T05:27:35;99189.41;;;11.96;100.00
60240;BME280;46102;39.012;-7.064;2022-11-25T05:29:41;99191.66;;;11.94;100.00
60240;BME280;46102;39.012;-7.064;2022-11-25T05:31:43;99190.81;;;11.93;100.00
60240;BME280;46102;39.012;-7.064;2022-11-25T05:33:45;99192.78;;;11.93;100.00
60240;BME280;46102;39.012;-7.064;2022-11-25T05:37:56;99196.66;;;11.92;100.00
60240;BME280;46102;39.012;-7.064;2022-11-25T05:40:00;99196.97;;;11.90;100.00
60240;BME280;46102;39.012;-7.064;2022-11-25T05:42:22;99196.25;;;11.84;100.00
60240;BME280;46102;39.012;-7.064;2022-11-25T05:44:23;99190.75;;;11.84;100.00
60240;BME280;46102;39.012;-7.064;2022-11-25T05:46:26;99189.41;;;11.82;100.00
60240;BME280;46102;39.012;-7.064;2022-11-25T05:48:29;99181.16;;;11.82;100.00
60240;BME280;46102;39.012;-7.064;2022-11-25T05:50:30;99175.19;;;11.80;100.00
60240;BME280;46102;39.012;-7.064;2022-11-25T05:52:38;99169.47;;;11.76;100.00
60240;BME280;46102;39.012;-7.064;2022-11-25T05:54:38;99170.28;;;11.77;100.00
60240;BME280;46102;39.012;-7.064;2022-11-25T05:56:40;99172.53;;;11.75;100.00
60240;BME280;46102;39.012;-7.064;2022-11-25T05:59:01;99178.66;;;11.72;100.00
60240;BME280;46102;39.012;-7.064;2022-11-25T06:01:15;99178.44;;;11.68;100.00
60240;BME280;46102;39.012;-7.064;2022-11-25T06:03:18;99180.69;;;11.66;100.00
60240;BME280;46102;39.012;-7.064;2022-11-25T06:05:19;99180.50;;;11.62;100.00
60240;BME280;46102;39.012;-7.064;2022-11-25T06:07:19;99188.75;;;11.62;100.00
60240;BME280;46102;39.012;-7.064;2022-11-25T06:09:21;99189.88;;;11.61;100.00
60240;BME280;46102;39.012;-7.064;2022-11-25T06:11:22;99192.44;;;11.58;100.00
60240;BME280;46102;39.012;-7.064;2022-11-25T06:13:25;99184.78;;;11.55;100.00
60240;BME280;46102;39.012;-7.064;2022-11-25T06:15:26;99183.81;;;11.51;100.00
60240;BME280;46102;39.012;-7.064;2022-11-25T06:17:29;99181.97;;;11.46;100.00
60240;BME280;46102;39.012;-7.064;2022-11-25T06:19:43;99179.66;;;11.39;100.00
60240;BME280;46102;39.012;-7.064;2022-11-25T06:21:43;99180.53;;;11.35;100.00
60240;BME280;46102;39.012;-7.064;2022-11-25T06:23:44;99187.78;;;11.31;100.00
60240;BME280;46102;39.012;-7.064;2022-11-25T06:25:47;99194.22;;;11.26;100.00
60240;BME280;46102;39.012;-7.064;2022-11-25T06:27:48;99190.94;;;11.24;100.00
60240;BME280;46102;39.012;-7.064;2022-11-25T06:29:49;99198.34;;;11.23;100.00
60240;BME280;46102;39.012;-7.064;2022-11-25T06:31:49;99201.94;;;11.24;100.00
60240;BME280;46102;39.012;-7.064;2022-11-25T06:34:05;99191.88;;;11.19;100.00
60240;BME280;46102;39.012;-7.064;2022-11-25T06:36:10;99206.50;;;11.15;100.00
60240;BME280;46102;39.012;-7.064;2022-11-25T06:38:16;99211.16;;;11.14;100.00
60240;BME280;46102;39.012;-7.064;2022-11-25T06:40:17;99227.13;;;11.12;100.00
60240;BME280;46102;39.012;-7.064;2022-11-25T06:42:17;99217.28;;;11.11;100.00
60240;BME280;46102;39.012;-7.064;2022-11-25T06:44:18;99217.00;;;11.13;100.00
60240;BME280;46102;39.012;-7.064;2022-11-25T06:46:19;99230.50;;;11.09;100.00
60240;BME280;46102;39.012;-7.064;2022-11-25T06:48:20;99241.78;;;11.08;100.00
60240;BME280;46102;39.012;-7.064;2022-11-25T06:50:20;99240.97;;;11.07;100.00
60240;BME280;46102;39.012;-7.064;2022-11-25T06:52:21;99247.50;;;11.11;100.00
60240;BME280;46102;39.012;-7.064;2022-11-25T06:54:22;99244.97;;;11.15;100.00
60240;BME280;46102;39.012;-7.064;2022-11-25T06:56:25;99241.69;;;11.13;100.00
60240;BME280;46102;39.012;-7.064;2022-11-25T06:58:27;99249.44;;;11.11;100.00
60240;BME280;46102;39.012;-7.064;2022-11-25T07:00:30;99254.41;;;11.09;100.00
60240;BME280;46102;39.012;-7.064;2022-11-25T07:02:31;99262.22;;;11.01;100.00
60240;BME280;46102;39.012;-7.064;2022-11-25T07:04:33;99262.22;;;11.01;100.00
60240;BME280;46102;39.012;-7.064;2022-11-25T07:06:34;99252.34;;;11.00;100.00
60240;BME280;46102;39.012;-7.064;2022-11-25T07:08:35;99246.66;;;10.97;100.00
60240;BME280;46102;39.012;-7.064;2022-11-25T07:10:35;99266.47;;;10.94;100.00
60240;BME280;46102;39.012;-7.064;2022-11-25T07:12:36;99264.25;;;10.96;100.00
60240;BME280;46102;39.012;-7.064;2022-11-25T07:14:37;99273.69;;;10.90;100.00
60240;BME280;46102;39.012;-7.064;2022-11-25T07:16:39;99278.38;;;10.89;100.00
60240;BME280;46102;39.012;-7.064;2022-11-25T07:18:40;99278.38;;;10.89;100.00
60240;BME280;46102;39.012;-7.064;2022-11-25T07:20:41;99277.84;;;10.87;100.00
60240;BME280;46102;39.012;-7.064;2022-11-25T07:22:42;99283.84;;;10.89;100.00
60240;BME280;46102;39.012;-7.064;2022-11-25T07:24:42;99283.66;;;10.86;100.00
60240;BME280;46102;39.012;-7.064;2022-11-25T07:26:44;99293.78;;;10.85;100.00
60240;BME280;46102;39.012;-7.064;2022-11-25T07:28:44;99287.72;;;10.88;100.00
60240;BME280;46102;39.012;-7.064;2022-11-25T07:30:45;99289.66;;;10.88;100.00
60240;BME280;46102;39.012;-7.064;2022-11-25T07:32:46;99302.16;;;10.94;100.00
60240;BME280;46102;39.012;-7.064;2022-11-25T07:34:49;99309.38;;;10.90;100.00
60240;BME280;46102;39.012;-7.064;2022-11-25T07:36:50;99315.47;;;10.87;100.00
60240;BME280;46102;39.012;-7.064;2022-11-25T07:38:51;99311.91;;;10.86;100.00
60240;BME280;46102;39.012;-7.064;2022-11-25T07:40:52;99314.03;;;10.89;100.00
60240;BME280;46102;39.012;-7.064;2022-11-25T07:42:53;99321.25;;;10.85;100.00
60240;BME280;46102;39.012;-7.064;2022-11-25T07:44:55;99323.78;;;10.81;100.00
60240;BME280;46102;39.012;-7.064;2022-11-25T07:47:14;99332.03;;;10.81;100.00
60240;BME280;46102;39.012;-7.064;2022-11-25T07:49:17;99332.75;;;10.87;100.00
60240;BME280;46102;39.012;-7.064;2022-11-25T07:51:20;99329.72;;;10.89;100.00
60240;BME280;46102;39.012;-7.064;2022-11-25T07:53:20;99327.47;;;10.91;100.00
60240;BME280;46102;39.012;-7.064;2022-11-25T07:55:21;99336.44;;;10.96;100.00
60240;BME280;46102;39.012;-7.064;2022-11-25T07:57:22;99343.38;;;11.08;100.00
60240;BME280;46102;39.012;-7.064;2022-11-25T07:59:23;99337.72;;;11.18;100.00
60240;BME280;46102;39.012;-7.064;2022-11-25T08:01:24;99334.28;;;11.26;100.00
60240;BME280;46102;39.012;-7.064;2022-11-25T08:03:24;99364.50;;;11.26;100.00
60240;BME280;46102;39.012;-7.064;2022-11-25T08:05:25;99368.84;;;11.27;100.00
60240;BME280;46102;39.012;-7.064;2022-11-25T08:07:26;99373.16;;;11.33;100.00
60240;BME280;46102;39.012;-7.064;2022-11-25T08:09:27;99381.81;;;11.40;100.00
60240;BME280;46102;39.012;-7.064;2022-11-25T08:11:29;99375.31;;;11.50;99.53
60240;BME280;46102;39.012;-7.064;2022-11-25T08:13:30;99374.22;;;11.65;98.98
60240;BME280;46102;39.012;-7.064;2022-11-25T08:15:32;99392.84;;;11.82;98.42
60240;BME280;46102;39.012;-7.064;2022-11-25T08:17:32;99400.72;;;12.16;96.80
60240;BME280;46102;39.012;-7.064;2022-11-25T08:19:33;99392.97;;;12.68;94.62
60240;BME280;46102;39.012;-7.064;2022-11-25T08:21:35;99393.19;;;13.17;91.22
60240;BME280;46102;39.012;-7.064;2022-11-25T08:23:36;99400.41;;;13.58;88.82
60240;BME280;46102;39.012;-7.064;2022-11-25T08:25:39;99402.41;;;14.15;84.12
60240;BME280;46102;39.012;-7.064;2022-11-25T08:27:40;99399.13;;;14.79;80.90
60240;BME280;46102;39.012;-7.064;2022-11-25T08:29:41;99390.44;;;15.50;76.94
60240;BME280;46102;39.012;-7.064;2022-11-25T08:31:42;99398.66;;;16.15;74.04
60240;BME280;46102;39.012;-7.064;2022-11-25T08:33:43;99413.13;;;16.71;70.28
60240;BME280;46102;39.012;-7.064;2022-11-25T08:35:43;99404.63;;;17.18;67.34
60240;BME280;46102;39.012;-7.064;2022-11-25T08:37:52;99412.19;;;17.42;65.47
60240;BME280;46102;39.012;-7.064;2022-11-25T08:39:52;99417.09;;;17.58;64.23
60240;BME280;46102;39.012;-7.064;2022-11-25T08:41:53;99423.66;;;17.53;63.90
60240;BME280;46102;39.012;-7.064;2022-11-25T08:43:55;99422.47;;;17.42;64.20
60240;BME280;46102;39.012;-7.064;2022-11-25T08:45:56;99420.25;;;17.35;63.48
60240;BME280;46102;39.012;-7.064;2022-11-25T08:47:56;99424.44;;;17.08;64.08
60240;BME280;46102;39.012;-7.064;2022-11-25T08:49:57;99424.56;;;16.91;64.92
60240;BME280;46102;39.012;-7.064;2022-11-25T08:51:58;99436.69;;;16.77;65.71
60240;BME280;46102;39.012;-7.064;2022-11-25T08:53:59;99440.34;;;16.69;66.25
60240;BME280;46102;39.012;-7.064;2022-11-25T08:55:59;99441.00;;;16.66;66.20
60240;BME280;46102;39.012;-7.064;2022-11-25T08:58:00;99439.59;;;16.60;66.17
60240;BME280;46102;39.012;-7.064;2022-11-25T09:00:02;99442.28;;;16.48;67.06
60240;BME280;46102;39.012;-7.064;2022-11-25T09:02:04;99449.94;;;16.51;67.04
60240;BME280;46102;39.012;-7.064;2022-11-25T09:04:05;99455.50;;;16.42;67.65
60240;BME280;46102;39.012;-7.064;2022-11-25T09:06:06;99455.94;;;16.53;67.73
60240;BME280;46102;39.012;-7.064;2022-11-25T09:08:08;99445.28;;;16.63;67.17
60240;BME280;46102;39.012;-7.064;2022-11-25T09:10:13;99454.88;;;16.66;66.96
60240;BME280;46102;39.012;-7.064;2022-11-25T09:12:14;99452.88;;;16.75;67.07
60240;BME280;46102;39.012;-7.064;2022-11-25T09:14:15;99457.22;;;16.85;66.68
60240;BME280;46102;39.012;-7.064;2022-11-25T09:16:16;99453.97;;;17.04;64.86
60240;BME280;46102;39.012;-7.064;2022-11-25T09:18:16;99461.56;;;17.16;64.74
60240;BME280;46102;39.012;-7.064;2022-11-25T09:20:19;99458.50;;;17.30;63.96
60240;BME280;46102;39.012;-7.064;2022-11-25T09:22:20;99460.03;;;17.39;62.83
60240;BME280;46102;39.012;-7.064;2022-11-25T09:24:20;99457.66;;;17.50;62.92
60240;BME280;46102;39.012;-7.064;2022-11-25T09:26:27;99467.06;;;17.70;62.24
60240;BME280;46102;39.012;-7.064;2022-11-25T09:28:31;99473.91;;;17.73;62.01
60240;BME280;46102;39.012;-7.064;2022-11-25T09:30:31;99476.72;;;17.85;62.23
60240;BME280;46102;39.012;-7.064;2022-11-25T09:32:32;99469.47;;;18.05;61.45
60240;BME280;46102;39.012;-7.064;2022-11-25T09:34:33;99472.72;;;18.19;61.11
60240;BME280;46102;39.012;-7.064;2022-11-25T09:36:34;99483.50;;;18.33;60.39
60240;BME280;46102;39.012;-7.064;2022-11-25T09:38:35;99478.88;;;18.49;58.91
60240;BME280;46102;39.012;-7.064;2022-11-25T09:40:55;99482.47;;;18.62;58.44
60240;BME280;46102;39.012;-7.064;2022-11-25T09:55:25;99503.69;;;19.32;56.23
60240;BME280;46102;39.012;-7.064;2022-11-25T09:57:58;99514.50;;;19.49;55.12
60240;BME280;46102;39.012;-7.064;2022-11-25T10:02:27;99519.75;;;19.67;55.74
60240;BME280;46102;39.012;-7.064;2022-11-25T10:04:48;99516.16;;;19.94;56.04
60240;BME280;46102;39.012;-7.064;2022-11-25T10:06:56;99528.34;;;20.34;54.16
60240;BME280;46102;39.012;-7.064;2022-11-25T10:09:03;99526.91;;;20.72;52.68
60240;BME280;46102;39.012;-7.064;2022-11-25T10:13:51;99533.75;;;20.74;47.40
60240;BME280;46102;39.012;-7.064;2022-11-25T10:15:58;99537.16;;;20.52;46.87
60240;BME280;46102;39.012;-7.064;2022-11-25T10:18:09;99536.78;;;20.37;47.84
60240;BME280;46102;39.012;-7.064;2022-11-25T10:20:20;99534.72;;;20.18;48.54
60240;BME280;46102;39.012;-7.064;2022-11-25T10:22:31;99547.38;;;20.32;48.55
60240;BME280;46102;39.012;-7.064;2022-11-25T10:24:33;99544.25;;;20.49;48.10
60240;BME280;46102;39.012;-7.064;2022-11-25T10:26:36;99540.00;;;20.55;46.70
60240;BME280;46102;39.012;-7.064;2022-11-25T10:28:52;99546.91;;;20.58;45.94
60240;BME280;46102;39.012;-7.064;2022-11-25T10:33:36;99541.41;;;20.62;45.11
60240;BME280;46102;39.012;-7.064;2022-11-25T10:35:44;99560.97;;;20.49;45.93
60240;BME280;46102;39.012;-7.064;2022-11-25T10:37:47;99551.75;;;20.61;46.49
60240;BME280;46102;39.012;-7.064;2022-11-25T10:39:54;99545.81;;;20.78;46.02
60240;BME280;46102;39.012;-7.064;2022-11-25T10:41:57;99545.06;;;20.82;45.96
60240;BME280;46102;39.012;-7.064;2022-11-25T10:44:02;99551.25;;;20.91;45.43
60240;BME280;46102;39.012;-7.064;2022-11-25T10:48:27;99549.47;;;20.83;44.50
60240;BME280;46102;39.012;-7.064;2022-11-25T10:52:38;99553.69;;;20.92;44.85
60240;BME280;46102;39.012;-7.064;2022-11-25T10:54:40;99549.47;;;20.98;43.83
60240;BME280;46102;39.012;-7.064;2022-11-25T11:13:58;99554.41;;;20.73;43.84
60240;BME280;46102;39.012;-7.064;2022-11-25T11:16:00;99559.09;;;20.85;43.49
60240;BME280;46102;39.012;-7.064;2022-11-25T11:20:22;99557.81;;;20.98;44.10
60240;BME280;46102;39.012;-7.064;2022-11-25T11:22:24;99558.59;;;21.15;43.54
60240;BME280;46102;39.012;-7.064;2022-11-25T11:24:28;99562.03;;;21.08;43.72
60240;BME280;46102;39.012;-7.064;2022-11-25T11:26:31;99561.34;;;21.31;43.34
60240;BME280;46102;39.012;-7.064;2022-11-25T11:30:34;99552.56;;;21.68;41.63
60240;BME280;46102;39.012;-7.064;2022-11-25T11:32:36;99562.25;;;21.74;38.93